Time;durP1;ratioP1;P1;durP2;ratioP2;P2;SDS_P1;SDS_P2;PMS_P1;PMS_P2;Temp;Humidity;BMP_temperature;BMP_pressure;BME280_temperature;BME280_humidity;BME280_pressure;Samples;Min_cycle;Max_cycle;Signal;HPM_P1;HPM_P2
2024/01/25 00:01:29;;;;;;;15.10;2.90;;;;;;;7.49;100.00;101627.00;4971333;28;20232;-73
2024/01/25 00:03:56;;;;;;;10.97;2.63;;;;;;;7.43;100.00;101632.00;4973184;28;20223;-74
2024/01/25 00:06:22;;;;;;;14.93;3.20;;;;;;;7.40;100.00;101612.53;4973624;28;20300;-73
2024/01/25 00:08:49;;;;;;;16.57;3.60;;;;;;;7.46;100.00;101625.97;4960011;28;20686;-74
2024/01/25 00:11:16;;;;;;;13.33;3.63;;;;;;;7.47;100.00;101617.22;4968721;28;20220;-72
2024/01/25 00:13:43;;;;;;;15.73;3.20;;;;;;;7.46;100.00;101624.25;4969675;28;20292;-73
2024/01/25 00:16:09;;;;;;;13.40;3.17;;;;;;;7.51;100.00;101627.97;4966719;28;20211;-73
2024/01/25 00:18:36;;;;;;;10.60;2.97;;;;;;;7.30;100.00;101611.19;4968925;28;20212;-73
2024/01/25 00:21:02;;;;;;;11.40;2.73;;;;;;;7.36;100.00;101614.13;4971378;28;20201;-73
2024/01/25 00:23:29;;;;;;;18.83;3.00;;;;;;;7.38;100.00;101623.00;4971525;28;20240;-73
2024/01/25 00:25:58;;;;;;;11.67;2.63;;;;;;;7.25;100.00;101641.72;4970957;28;20577;-74
2024/01/25 00:28:26;;;;;;;16.77;2.77;;;;;;;7.04;100.00;101630.16;4965758;28;20568;-74
2024/01/25 00:30:52;;;;;;;17.47;2.87;;;;;;;7.14;100.00;101635.91;4971295;28;20286;-74
2024/01/25 00:33:19;;;;;;;8.67;2.27;;;;;;;7.17;100.00;101633.41;4971633;28;20232;-73
2024/01/25 00:35:45;;;;;;;13.20;2.53;;;;;;;7.04;100.00;101632.78;4971294;28;20664;-73
2024/01/25 00:38:12;;;;;;;12.57;2.10;;;;;;;7.06;100.00;101636.38;4961288;28;20701;-73
2024/01/25 00:40:39;;;;;;;14.13;2.73;;;;;;;7.03;100.00;101637.16;4968487;28;20208;-73
2024/01/25 00:43:06;;;;;;;12.73;2.10;;;;;;;7.02;100.00;101632.72;4969488;28;20730;-73
2024/01/25 00:45:33;;;;;;;20.13;2.60;;;;;;;7.14;100.00;101637.66;4970769;28;20202;-73
2024/01/25 00:47:59;;;;;;;11.77;2.60;;;;;;;6.95;100.00;101624.44;4966541;28;20283;-73
2024/01/25 00:50:26;;;;;;;14.20;2.70;;;;;;;6.93;100.00;101631.38;4971027;28;20201;-73
2024/01/25 00:52:53;;;;;;;12.70;2.37;;;;;;;7.06;100.00;101628.50;4965030;28;20771;-73
2024/01/25 00:55:20;;;;;;;21.43;2.73;;;;;;;7.19;100.00;101628.22;4969662;28;20210;-73
2024/01/25 00:57:47;;;;;;;10.30;2.23;;;;;;;7.17;100.00;101632.53;4968851;28;20213;-73
2024/01/25 01:00:14;;;;;;;16.03;2.27;;;;;;;7.30;100.00;101634.91;4966445;28;20201;-73
2024/01/25 01:02:44;;;;;;;12.07;1.93;;;;;;;7.37;100.00;101634.38;4969396;28;20235;-73
2024/01/25 01:05:12;;;;;;;11.03;2.73;;;;;;;7.26;100.00;101614.53;4957972;28;20427;-74
2024/01/25 01:07:40;;;;;;;11.67;2.40;;;;;;;7.44;100.00;101631.19;4970603;28;20197;-74
2024/01/25 01:10:08;;;;;;;8.80;2.20;;;;;;;7.37;100.00;101633.47;4968445;28;20215;-75
2024/01/25 01:12:35;;;;;;;10.63;2.67;;;;;;;7.43;100.00;101632.00;4966178;28;20288;-73
2024/01/25 01:15:03;;;;;;;10.40;1.97;;;;;;;7.51;100.00;101638.53;4955658;28;20205;-73
2024/01/25 01:17:29;;;;;;;12.83;2.80;;;;;;;7.53;100.00;101655.31;4965688;28;20216;-73
2024/01/25 01:19:56;;;;;;;12.93;2.60;;;;;;;7.55;100.00;101655.38;4972074;28;20203;-74
2024/01/25 01:22:22;;;;;;;14.87;2.80;;;;;;;7.64;100.00;101654.91;4967023;28;20299;-73
2024/01/25 01:24:49;;;;;;;8.47;2.63;;;;;;;7.66;100.00;101662.06;4971254;28;20225;-74
2024/01/25 01:27:16;;;;;;;11.80;3.10;;;;;;;7.60;100.00;101659.13;4965349;28;20216;-73
2024/01/25 01:29:42;;;;;;;12.77;3.10;;;;;;;7.49;100.00;101661.28;4970689;28;20279;-73
2024/01/25 01:32:09;;;;;;;12.60;2.80;;;;;;;7.25;100.00;101659.25;4966668;28;20629;-72
2024/01/25 01:34:35;;;;;;;13.97;2.97;;;;;;;7.11;100.00;101663.84;4968986;28;20200;-73
2024/01/25 01:37:02;;;;;;;11.03;2.60;;;;;;;6.99;100.00;101658.91;4970013;28;20638;-73
2024/01/25 01:39:28;;;;;;;18.13;3.27;;;;;;;6.90;100.00;101663.72;4969710;28;20209;-73
2024/01/25 01:41:55;;;;;;;16.63;3.00;;;;;;;6.70;100.00;101668.00;4966690;28;20256;-73
2024/01/25 01:44:21;;;;;;;14.60;2.33;;;;;;;6.69;100.00;101682.00;4965376;28;20251;-72
2024/01/25 01:46:48;;;;;;;17.73;2.77;;;;;;;6.66;100.00;101678.31;4964512;28;20295;-73
2024/01/25 01:49:16;;;;;;;11.10;3.07;;;;;;;6.59;100.00;101667.47;4968308;28;20255;-73
2024/01/25 01:51:43;;;;;;;7.90;2.13;;;;;;;6.42;100.00;101670.13;4968685;28;20327;-73
2024/01/25 01:54:11;;;;;;;13.87;2.60;;;;;;;6.25;100.00;101667.50;4967268;28;20236;-74
2024/01/25 01:56:39;;;;;;;13.00;2.50;;;;;;;6.23;100.00;101673.50;4962277;28;20212;-73
2024/01/25 01:59:10;;;;;;;9.20;2.30;;;;;;;6.05;100.00;101669.94;4968695;28;20205;-73
2024/01/25 02:01:37;;;;;;;11.90;2.23;;;;;;;5.99;100.00;101678.38;4968979;28;20739;-73
2024/01/25 02:04:05;;;;;;;17.33;2.80;;;;;;;5.92;100.00;101671.00;4963704;28;20303;-74
2024/01/25 02:06:32;;;;;;;15.37;2.73;;;;;;;5.89;100.00;101677.00;4969004;28;20208;-73
2024/01/25 02:08:59;;;;;;;12.17;2.50;;;;;;;5.69;100.00;101671.50;4962166;28;20480;-73
2024/01/25 02:11:26;;;;;;;10.87;2.97;;;;;;;5.95;100.00;101674.69;4966783;28;20674;-73
2024/01/25 02:13:53;;;;;;;18.10;2.77;;;;;;;6.13;100.00;101680.03;4970475;28;20205;-73
2024/01/25 02:16:19;;;;;;;10.83;2.50;;;;;;;6.08;100.00;101673.63;4968333;28;20285;-73
2024/01/25 02:18:47;;;;;;;12.90;2.30;;;;;;;6.09;100.00;101678.06;4964945;28;20262;-73
2024/01/25 02:21:14;;;;;;;11.50;2.53;;;;;;;6.04;100.00;101683.91;4962577;28;20667;-73
2024/01/25 02:23:41;;;;;;;18.03;2.57;;;;;;;5.94;100.00;101677.25;4967456;28;20225;-74
2024/01/25 02:26:08;;;;;;;15.10;2.53;;;;;;;6.02;100.00;101675.94;4962739;28;20691;-73
2024/01/25 02:28:34;;;;;;;16.90;2.53;;;;;;;5.94;100.00;101672.91;4969874;28;20263;-74
2024/01/25 02:31:02;;;;;;;12.13;2.37;;;;;;;5.95;100.00;101668.53;4964807;28;20214;-73
2024/01/25 02:33:29;;;;;;;12.70;2.63;;;;;;;5.91;100.00;101680.63;4966501;28;20232;-73
2024/01/25 02:35:56;;;;;;;13.23;2.40;;;;;;;5.90;100.00;101685.81;4967506;28;20203;-73
2024/01/25 02:38:22;;;;;;;11.87;2.67;;;;;;;5.75;100.00;101671.81;4963456;28;20204;-73
2024/01/25 02:40:48;;;;;;;10.17;2.63;;;;;;;5.65;100.00;101680.94;4970256;28;20294;-73
2024/01/25 02:43:15;;;;;;;7.10;2.20;;;;;;;5.60;100.00;101683.34;4967018;28;20590;-73
2024/01/25 02:45:41;;;;;;;14.83;3.17;;;;;;;5.63;100.00;101687.84;4967979;28;20230;-74
2024/01/25 02:48:08;;;;;;;9.80;2.83;;;;;;;5.64;100.00;101669.53;4964858;28;20627;-72
2024/01/25 02:50:34;;;;;;;14.57;2.53;;;;;;;5.80;100.00;101675.59;4968104;28;20230;-74
2024/01/25 02:53:01;;;;;;;14.07;2.90;;;;;;;5.89;100.00;101678.72;4967594;28;20230;-73
2024/01/25 02:55:28;;;;;;;12.17;2.97;;;;;;;5.96;100.00;101671.25;4967568;28;20206;-73
2024/01/25 02:57:54;;;;;;;13.27;3.50;;;;;;;6.05;100.00;101676.09;4967158;28;20208;-73
2024/01/25 03:00:21;;;;;;;11.77;2.73;;;;;;;6.13;100.00;101673.88;4969199;28;20213;-73
2024/01/25 03:02:47;;;;;;;12.70;2.50;;;;;;;6.19;100.00;101675.09;4968541;28;20235;-73
2024/01/25 03:05:13;;;;;;;14.33;3.10;;;;;;;6.20;100.00;101669.00;4967969;28;20281;-73
2024/01/25 03:07:40;;;;;;;18.43;3.30;;;;;;;6.41;100.00;101686.72;4968772;28;20404;-73
2024/01/25 03:10:07;;;;;;;12.43;3.13;;;;;;;6.43;100.00;101680.72;4966157;28;20270;-73
2024/01/25 03:12:34;;;;;;;10.07;2.50;;;;;;;6.47;100.00;101690.56;4963090;28;20228;-74
2024/01/25 03:15:00;;;;;;;6.73;2.43;;;;;;;6.44;100.00;101674.63;4964811;28;20197;-74
2024/01/25 03:17:26;;;;;;;14.23;3.10;;;;;;;6.55;100.00;101685.69;4965167;28;20208;-74
2024/01/25 03:19:53;;;;;;;12.03;3.03;;;;;;;6.58;100.00;101684.09;4967735;28;20292;-73
2024/01/25 03:22:20;;;;;;;14.30;2.80;;;;;;;6.65;100.00;101695.84;4964805;28;20227;-73
2024/01/25 03:24:47;;;;;;;13.20;3.47;;;;;;;6.73;100.00;101698.84;4964641;28;20316;-74
2024/01/25 03:27:14;;;;;;;9.20;2.80;;;;;;;6.73;100.00;101690.94;4966596;28;20205;-73
2024/01/25 03:29:42;;;;;;;14.83;2.77;;;;;;;6.74;100.00;101687.50;4968494;28;20202;-72
2024/01/25 03:32:10;;;;;;;15.70;3.63;;;;;;;6.88;100.00;101691.72;4965636;28;20778;-72
2024/01/25 03:34:36;;;;;;;14.20;2.70;;;;;;;6.89;100.00;101693.53;4966132;28;20661;-72
2024/01/25 03:37:03;;;;;;;12.17;3.10;;;;;;;7.00;100.00;101704.56;4967406;28;20264;-72
2024/01/25 03:39:30;;;;;;;17.10;3.37;;;;;;;7.04;100.00;101710.06;4962951;28;20197;-72
2024/01/25 03:41:56;;;;;;;15.73;3.50;;;;;;;7.07;100.00;101714.56;4966573;28;20618;-72
2024/01/25 03:44:23;;;;;;;14.63;2.87;;;;;;;7.12;100.00;101719.22;4962445;28;20600;-72
2024/01/25 03:46:50;;;;;;;14.93;3.00;;;;;;;7.07;100.00;101725.13;4967662;28;20216;-72
2024/01/25 03:49:17;;;;;;;9.03;2.53;;;;;;;7.07;100.00;101722.47;4965701;28;20213;-73
2024/01/25 03:51:43;;;;;;;10.87;2.70;;;;;;;7.02;100.00;101719.63;4964690;28;20256;-73
2024/01/25 03:54:10;;;;;;;11.20;2.90;;;;;;;7.07;100.00;101733.91;4962334;28;20205;-73
2024/01/25 03:56:36;;;;;;;10.47;2.87;;;;;;;7.12;100.00;101742.03;4970020;28;20201;-72
2024/01/25 03:59:03;;;;;;;7.60;2.23;;;;;;;7.14;100.00;101741.28;4966402;28;20201;-73
2024/01/25 04:01:29;;;;;;;13.53;3.03;;;;;;;7.09;100.00;101736.63;4968350;28;20197;-72
2024/01/25 04:03:57;;;;;;;6.37;2.40;;;;;;;7.09;100.00;101737.53;4966974;28;20778;-72
2024/01/25 04:06:24;;;;;;;16.27;2.60;;;;;;;7.01;100.00;101735.34;4959980;28;20239;-73
2024/01/25 04:08:51;;;;;;;10.03;2.83;;;;;;;6.91;100.00;101732.28;4967996;28;20208;-73
2024/01/25 04:11:17;;;;;;;7.63;2.23;;;;;;;6.82;100.00;101738.81;4964635;28;20209;-73
2024/01/25 04:13:43;;;;;;;10.90;2.67;;;;;;;6.62;100.00;101731.63;4961730;28;20201;-72
2024/01/25 04:16:14;;;;;;;14.73;3.30;;;;;;;6.55;100.00;101738.31;4958481;28;20202;-72
2024/01/25 04:18:40;;;;;;;11.90;2.80;;;;;;;6.53;100.00;101739.97;4963825;28;20212;-73
2024/01/25 04:21:07;;;;;;;15.63;2.83;;;;;;;6.48;100.00;101749.34;4965322;28;20214;-71
2024/01/25 04:23:33;;;;;;;9.37;2.57;;;;;;;6.49;100.00;101752.06;4965814;28;20225;-73
2024/01/25 04:26:00;;;;;;;11.50;3.30;;;;;;;6.49;100.00;101736.28;4962671;28;20273;-72
2024/01/25 04:28:26;;;;;;;12.50;2.77;;;;;;;6.52;100.00;101740.78;4965041;28;20218;-72
2024/01/25 04:30:53;;;;;;;9.53;2.37;;;;;;;6.43;100.00;101737.69;4968436;28;20294;-72
2024/01/25 04:33:20;;;;;;;14.03;2.73;;;;;;;6.39;100.00;101740.97;4963079;28;20225;-73
2024/01/25 04:35:47;;;;;;;11.07;3.00;;;;;;;6.52;100.00;101733.81;4966660;28;20722;-73
2024/01/25 04:38:13;;;;;;;14.87;3.00;;;;;;;6.62;100.00;101745.69;4972043;28;20198;-73
2024/01/25 04:40:39;;;;;;;10.20;2.50;;;;;;;6.71;100.00;101743.53;4970026;28;20206;-73
2024/01/25 04:43:06;;;;;;;10.80;2.73;;;;;;;6.90;100.00;101755.91;4968425;28;20661;-73
2024/01/25 04:45:32;;;;;;;12.87;3.00;;;;;;;7.01;100.00;101749.44;4968039;28;20316;-73
2024/01/25 04:47:59;;;;;;;12.80;3.00;;;;;;;6.98;100.00;101751.00;4968914;28;20215;-73
2024/01/25 04:50:26;;;;;;;10.43;2.50;;;;;;;7.06;100.00;101757.56;4971112;28;20224;-73
2024/01/25 04:52:52;;;;;;;13.90;2.77;;;;;;;7.11;100.00;101761.31;4971131;28;20224;-73
2024/01/25 04:55:20;;;;;;;14.63;3.07;;;;;;;7.15;100.00;101756.25;4963722;28;20677;-72
2024/01/25 04:57:47;;;;;;;7.60;2.30;;;;;;;7.21;100.00;101763.59;4964571;28;20226;-73
2024/01/25 05:00:14;;;;;;;15.00;3.03;;;;;;;7.18;100.00;101764.31;4968889;28;20217;-73
2024/01/25 05:02:41;;;;;;;11.73;2.70;;;;;;;7.31;100.00;101775.47;4966884;28;20248;-73
2024/01/25 05:05:08;;;;;;;14.37;3.17;;;;;;;7.28;100.00;101784.13;4969322;28;20226;-73
2024/01/25 05:07:34;;;;;;;18.33;3.37;;;;;;;7.33;100.00;101801.06;4967369;28;20205;-73
2024/01/25 05:10:02;;;;;;;10.40;2.60;;;;;;;7.24;100.00;101805.91;4972098;28;20505;-73
2024/01/25 05:12:29;;;;;;;14.67;3.73;;;;;;;7.23;100.00;101805.00;4961458;28;20320;-72
2024/01/25 05:14:55;;;;;;;13.63;3.10;;;;;;;7.32;100.00;101822.06;4958704;28;20215;-73
2024/01/25 05:17:22;;;;;;;14.63;3.00;;;;;;;7.27;100.00;101821.84;4968475;28;20202;-72
2024/01/25 05:19:48;;;;;;;14.50;3.00;;;;;;;7.10;100.00;101817.47;4971534;28;20209;-73
2024/01/25 05:22:16;;;;;;;12.73;3.00;;;;;;;7.05;100.00;101830.41;4967187;28;20238;-72
2024/01/25 05:24:42;;;;;;;13.70;3.07;;;;;;;6.94;100.00;101825.44;4961987;28;20660;-73
2024/01/25 05:27:09;;;;;;;14.70;3.30;;;;;;;6.98;100.00;101820.38;4966620;28;20198;-72
2024/01/25 05:29:35;;;;;;;15.83;3.40;;;;;;;7.02;100.00;101821.44;4969725;28;20205;-73
2024/01/25 05:32:02;;;;;;;13.37;3.07;;;;;;;6.99;100.00;101830.09;4962027;28;20233;-73
2024/01/25 05:34:28;;;;;;;9.30;2.70;;;;;;;6.80;100.00;101815.06;4970008;28;20212;-72
2024/01/25 05:36:55;;;;;;;9.37;2.87;;;;;;;6.78;100.00;101813.19;4964087;28;20209;-72
2024/01/25 05:39:22;;;;;;;14.53;3.10;;;;;;;6.46;100.00;101803.63;4971914;28;20239;-73
2024/01/25 05:41:51;;;;;;;12.40;2.83;;;;;;;6.37;100.00;101814.56;4971346;28;20266;-73
2024/01/25 05:44:17;;;;;;;10.47;3.00;;;;;;;6.19;100.00;101806.59;4968651;28;20213;-72
2024/01/25 05:46:44;;;;;;;8.60;2.10;;;;;;;6.21;100.00;101819.84;4970294;28;20289;-73
2024/01/25 05:49:10;;;;;;;10.40;2.00;;;;;;;6.15;100.00;101819.50;4969117;28;20291;-72
2024/01/25 05:51:37;;;;;;;12.80;2.77;;;;;;;6.03;100.00;101822.38;4969451;28;20795;-72
2024/01/25 05:54:04;;;;;;;14.37;3.10;;;;;;;5.86;100.00;101815.25;4961794;28;20687;-72
2024/01/25 05:56:30;;;;;;;17.97;3.10;;;;;;;5.86;100.00;101831.94;4965873;28;20203;-72
2024/01/25 05:58:56;;;;;;;11.80;2.77;;;;;;;5.80;100.00;101828.06;4971341;28;20213;-72
2024/01/25 06:01:23;;;;;;;14.77;3.03;;;;;;;5.66;100.00;101822.94;4970596;28;20284;-72
2024/01/25 06:03:49;;;;;;;12.67;3.17;;;;;;;5.56;100.00;101835.47;4969814;28;20203;-72
2024/01/25 06:06:16;;;;;;;10.03;2.93;;;;;;;5.51;100.00;101835.19;4967186;28;20224;-73
2024/01/25 06:08:43;;;;;;;15.63;2.90;;;;;;;5.58;100.00;101834.72;4967919;28;20220;-73
2024/01/25 06:11:20;;;;;;;16.43;3.10;;;;;;;5.60;100.00;101833.13;4971019;28;20236;-72
2024/01/25 06:13:46;;;;;;;12.30;3.47;;;;;;;5.55;100.00;101844.16;4969515;28;20200;-73
2024/01/25 06:16:13;;;;;;;14.80;3.10;;;;;;;5.32;100.00;101834.97;4963475;28;20196;-72
2024/01/25 06:18:39;;;;;;;18.17;3.27;;;;;;;5.20;100.00;101834.25;4964349;28;20285;-73
2024/01/25 06:21:06;;;;;;;11.07;2.50;;;;;;;5.12;100.00;101833.81;4970318;28;20677;-73
2024/01/25 06:23:32;;;;;;;10.57;2.80;;;;;;;4.97;100.00;101812.84;4965577;28;20732;-73
2024/01/25 06:25:58;;;;;;;11.23;2.90;;;;;;;4.89;100.00;101814.09;4970516;28;20308;-73
2024/01/25 06:28:25;;;;;;;13.37;2.50;;;;;;;4.91;100.00;101830.84;4969945;28;20207;-73
2024/01/25 06:30:52;;;;;;;11.33;3.00;;;;;;;4.61;100.00;101813.28;4970023;28;20229;-74
2024/01/25 06:33:18;;;;;;;12.43;3.10;;;;;;;4.55;100.00;101853.16;4969704;28;20269;-73
2024/01/25 06:35:45;;;;;;;17.23;3.13;;;;;;;4.49;100.00;101858.03;4961316;28;20200;-72
2024/01/25 06:38:11;;;;;;;14.83;2.80;;;;;;;4.44;100.00;101862.09;4964146;28;20233;-73
2024/01/25 06:40:40;;;;;;;14.67;3.20;;;;;;;4.45;100.00;101861.28;4965746;28;20212;-72
2024/01/25 06:43:06;;;;;;;13.97;3.40;;;;;;;4.34;100.00;101857.06;4968723;28;20720;-72
2024/01/25 06:45:33;;;;;;;17.83;3.77;;;;;;;4.27;100.00;101853.19;4969476;28;20219;-72
2024/01/25 06:47:59;;;;;;;12.10;3.07;;;;;;;4.25;100.00;101854.78;4968372;28;20206;-72
2024/01/25 06:50:26;;;;;;;16.03;3.10;;;;;;;4.19;100.00;101864.00;4969374;28;20220;-72
2024/01/25 06:52:53;;;;;;;18.00;3.33;;;;;;;4.17;100.00;101863.00;4968735;28;20611;-72
2024/01/25 06:55:20;;;;;;;11.37;3.17;;;;;;;4.14;100.00;101865.44;4968136;28;20753;-72
2024/01/25 06:57:46;;;;;;;13.60;3.47;;;;;;;4.08;100.00;101861.63;4966588;28;20238;-72
2024/01/25 07:00:15;;;;;;;22.73;3.77;;;;;;;4.15;100.00;101865.53;4970831;28;20215;-72
2024/01/25 07:02:42;;;;;;;11.57;2.63;;;;;;;4.16;100.00;101849.00;4958827;28;20247;-71
2024/01/25 07:05:09;;;;;;;15.27;3.30;;;;;;;4.03;100.00;101870.00;4952880;28;20221;-70
2024/01/25 07:07:38;;;;;;;12.90;3.00;;;;;;;4.16;100.00;101880.44;4965333;28;20212;-69
2024/01/25 07:10:06;;;;;;;10.80;3.33;;;;;;;4.04;100.00;101877.97;4968847;28;20230;-70
2024/01/25 07:12:32;;;;;;;10.37;2.93;;;;;;;3.93;100.00;101872.84;4969294;28;20225;-70
2024/01/25 07:14:59;;;;;;;17.80;3.40;;;;;;;3.82;100.00;101876.50;4968378;28;20249;-70
2024/01/25 07:17:25;;;;;;;12.10;3.40;;;;;;;3.67;100.00;101889.53;4969926;28;20209;-70
2024/01/25 07:19:52;;;;;;;14.17;3.30;;;;;;;3.55;100.00;101883.44;4969294;28;20202;-71
2024/01/25 07:22:18;;;;;;;14.17;2.90;;;;;;;3.45;100.00;101893.34;4968931;28;20221;-71
2024/01/25 07:24:45;;;;;;;20.20;4.03;;;;;;;3.46;100.00;101899.47;4973894;28;20558;-71
2024/01/25 07:27:12;;;;;;;13.60;3.33;;;;;;;3.51;100.00;101902.41;4965190;28;20209;-71
2024/01/25 07:29:38;;;;;;;15.67;4.70;;;;;;;3.52;100.00;101905.13;4967674;28;21412;-70
2024/01/25 07:32:05;;;;;;;17.47;4.50;;;;;;;3.61;100.00;101908.38;4970598;28;20813;-71
2024/01/25 07:34:31;;;;;;;13.97;4.10;;;;;;;3.71;100.00;101905.53;4968497;28;20292;-71
2024/01/25 07:36:58;;;;;;;14.40;4.40;;;;;;;3.92;100.00;101902.47;4965116;28;20217;-70
2024/01/25 07:39:24;;;;;;;16.83;4.13;;;;;;;4.12;100.00;101901.13;4967006;28;20237;-71
2024/01/25 07:41:51;;;;;;;15.50;3.87;;;;;;;4.27;100.00;101892.50;4968763;28;20643;-70
2024/01/25 07:44:19;;;;;;;14.77;4.53;;;;;;;4.23;100.00;101892.22;4969265;28;20211;-72
2024/01/25 07:46:48;;;;;;;13.07;3.53;;;;;;;4.25;100.00;101886.25;4967131;28;20251;-72
2024/01/25 07:49:16;;;;;;;14.30;3.70;;;;;;;4.16;100.00;101883.06;4960713;28;20213;-73
2024/01/25 07:51:43;;;;;;;15.73;3.40;;;;;;;4.26;100.00;101892.41;4961552;28;20450;-73
2024/01/25 07:54:10;;;;;;;17.67;3.43;;;;;;;4.20;100.00;101882.44;4967240;28;20530;-73
2024/01/25 07:56:36;;;;;;;16.07;3.60;;;;;;;4.22;100.00;101883.44;4969360;28;20204;-73
2024/01/25 07:59:03;;;;;;;16.50;3.27;;;;;;;4.21;100.00;101886.88;4964927;28;20293;-73
2024/01/25 08:01:29;;;;;;;14.60;3.53;;;;;;;4.20;100.00;101892.94;4969536;28;20205;-73
2024/01/25 08:03:56;;;;;;;19.03;3.07;;;;;;;4.23;100.00;101886.97;4970013;28;20587;-72
2024/01/25 08:06:23;;;;;;;13.27;3.70;;;;;;;4.37;100.00;101891.34;4967021;28;20226;-72
2024/01/25 08:08:49;;;;;;;21.53;4.17;;;;;;;4.55;100.00;101899.47;4956479;28;20206;-72
2024/01/25 08:11:18;;;;;;;19.67;4.20;;;;;;;4.72;100.00;101899.69;4971412;28;20209;-71
2024/01/25 08:13:45;;;;;;;22.47;4.07;;;;;;;4.86;100.00;101894.38;4972657;28;20573;-73
2024/01/25 08:16:12;;;;;;;17.60;4.33;;;;;;;4.96;100.00;101894.13;4971086;28;20306;-73
2024/01/25 08:18:39;;;;;;;14.37;3.77;;;;;;;4.92;100.00;101895.66;4970408;28;20253;-73
2024/01/25 08:21:05;;;;;;;15.70;3.50;;;;;;;4.83;100.00;101904.69;4972631;28;20213;-72
2024/01/25 08:23:32;;;;;;;11.70;3.50;;;;;;;4.81;100.00;101895.84;4968965;28;20266;-72
2024/01/25 08:25:59;;;;;;;17.23;3.57;;;;;;;4.81;100.00;101909.88;4973507;28;20301;-73
2024/01/25 08:28:25;;;;;;;14.33;3.20;;;;;;;4.82;100.00;101908.16;4972222;28;20205;-73
2024/01/25 08:30:52;;;;;;;16.93;4.30;;;;;;;4.88;100.00;101908.50;4970299;28;20595;-72
2024/01/25 08:33:18;;;;;;;19.00;4.27;;;;;;;4.94;100.00;101912.41;4969653;28;20304;-73
2024/01/25 08:35:45;;;;;;;19.00;4.90;;;;;;;5.08;100.00;101914.94;4971940;28;20195;-72
2024/01/25 08:38:12;;;;;;;18.27;4.63;;;;;;;5.23;100.00;101914.16;4972688;28;20682;-71
2024/01/25 08:40:38;;;;;;;12.90;3.90;;;;;;;5.41;100.00;101909.06;4965976;28;20203;-72
2024/01/25 08:43:05;;;;;;;20.33;4.17;;;;;;;5.49;100.00;101907.78;4970201;28;20230;-72
2024/01/25 08:45:31;;;;;;;21.00;3.97;;;;;;;5.58;100.00;101912.66;4968576;28;20228;-72
2024/01/25 08:47:59;;;;;;;15.00;3.87;;;;;;;5.62;100.00;101912.94;4969672;28;20204;-72
2024/01/25 08:50:26;;;;;;;16.90;4.37;;;;;;;5.71;100.00;101914.28;4969703;28;20210;-72
2024/01/25 08:52:53;;;;;;;14.77;3.40;;;;;;;5.77;100.00;101920.78;4970606;28;20319;-73
2024/01/25 08:55:19;;;;;;;16.27;4.13;;;;;;;5.90;100.00;101917.16;4969748;28;20280;-73
2024/01/25 08:57:46;;;;;;;20.43;4.47;;;;;;;6.03;100.00;101917.06;4972993;28;20285;-73
2024/01/25 09:00:15;;;;;;;14.47;4.50;;;;;;;6.15;100.00;101919.47;4968385;28;20302;-73
2024/01/25 09:02:42;;;;;;;18.50;4.50;;;;;;;6.34;100.00;101913.47;4967505;28;20236;-72
2024/01/25 09:05:09;;;;;;;21.13;4.27;;;;;;;6.55;100.00;101901.50;4969304;28;20292;-72
2024/01/25 09:07:37;;;;;;;14.43;3.43;;;;;;;6.77;100.00;101899.16;4967971;28;20212;-72
2024/01/25 09:10:04;;;;;;;17.50;3.50;;;;;;;7.00;100.00;101888.94;4970297;28;20293;-72
2024/01/25 09:12:31;;;;;;;11.03;3.47;;;;;;;7.29;100.00;101896.63;4968278;28;20234;-72
2024/01/25 09:14:58;;;;;;;24.77;4.43;;;;;;;7.38;100.00;101893.53;4967240;28;20212;-73
2024/01/25 09:17:24;;;;;;;18.63;3.43;;;;;;;7.58;100.00;101882.22;4970288;28;20713;-72
2024/01/25 09:19:51;;;;;;;19.60;3.50;;;;;;;7.86;100.00;101895.03;4972499;28;20574;-72
2024/01/25 09:22:22;;;;;;;19.83;3.83;;;;;;;7.97;100.00;101893.81;4970460;28;20452;-72
2024/01/25 09:24:48;;;;;;;19.60;3.60;;;;;;;8.06;100.00;101906.56;4969501;28;20209;-72
2024/01/25 09:27:15;;;;;;;17.63;3.80;;;;;;;8.21;100.00;101902.00;4970411;28;20604;-72
2024/01/25 09:29:42;;;;;;;12.60;3.27;;;;;;;8.28;100.00;101912.00;4967059;28;20205;-72
2024/01/25 09:32:09;;;;;;;14.30;3.03;;;;;;;8.28;100.00;101909.38;4971800;28;20226;-72
2024/01/25 09:34:37;;;;;;;17.03;3.20;;;;;;;8.29;100.00;101905.00;4972524;28;20206;-72
2024/01/25 09:37:06;;;;;;;13.87;3.27;;;;;;;8.46;100.00;101906.75;4969365;28;20330;-72
2024/01/25 09:39:35;;;;;;;11.30;3.10;;;;;;;8.41;100.00;101909.16;4952575;28;20593;-71
2024/01/25 09:42:03;;;;;;;18.70;4.00;;;;;;;8.60;100.00;101902.09;4966060;28;20231;-70
2024/01/25 09:44:31;;;;;;;16.70;3.40;;;;;;;8.79;100.00;101900.31;4971569;28;20283;-71
2024/01/25 09:46:58;;;;;;;17.17;3.17;;;;;;;8.93;100.00;101897.41;4970108;28;20306;-71
2024/01/25 09:49:26;;;;;;;13.53;2.87;;;;;;;9.13;100.00;101909.75;4964713;28;20202;-70
2024/01/25 09:51:55;;;;;;;19.17;3.60;;;;;;;9.40;100.00;101907.41;4969710;28;20277;-71
2024/01/25 09:54:23;;;;;;;13.83;4.27;;;;;;;9.55;100.00;101910.66;4965880;28;20502;-71
2024/01/25 09:56:51;;;;;;;19.23;3.93;;;;;;;9.62;100.00;101910.13;4970335;28;20679;-71
2024/01/25 09:59:17;;;;;;;15.33;3.13;;;;;;;9.76;100.00;101917.72;4969495;28;20698;-71
2024/01/25 10:01:44;;;;;;;13.70;3.17;;;;;;;9.83;100.00;101918.00;4965383;28;20234;-70
2024/01/25 10:04:10;;;;;;;16.83;3.03;;;;;;;9.95;100.00;101912.31;4971146;28;20199;-70
2024/01/25 10:06:37;;;;;;;11.77;3.27;;;;;;;10.03;100.00;101911.81;4969388;28;20229;-70
2024/01/25 10:09:04;;;;;;;13.83;3.43;;;;;;;10.05;100.00;101917.16;4967427;28;20205;-70
2024/01/25 10:11:35;;;;;;;11.43;2.93;;;;;;;10.19;100.00;101915.03;4970693;28;20301;-70
2024/01/25 10:14:08;;;;;;;15.90;3.13;;;;;;;10.36;100.00;101919.28;4959633;28;20207;-70
2024/01/25 10:16:34;;;;;;;15.37;3.63;;;;;;;10.43;100.00;101917.78;4965743;28;20280;-70
2024/01/25 10:19:05;;;;;;;15.07;3.07;;;;;;;10.48;100.00;101906.53;4971175;28;20669;-70
2024/01/25 10:21:32;;;;;;;9.20;3.33;;;;;;;10.47;100.00;101907.38;4969642;28;20601;-70
2024/01/25 10:23:59;;;;;;;11.97;2.70;;;;;;;10.54;100.00;101913.78;4968407;28;20281;-70
2024/01/25 10:26:30;;;;;;;13.70;3.03;;;;;;;10.71;100.00;101912.66;4969274;28;20256;-70
2024/01/25 10:28:56;;;;;;;19.10;3.50;;;;;;;10.54;100.00;101912.03;4965583;28;20232;-70
2024/01/25 10:31:28;;;;;;;16.70;3.27;;;;;;;10.60;100.00;101914.03;4966523;28;20232;-70
2024/01/25 10:33:57;;;;;;;13.73;3.20;;;;;;;10.51;100.00;101925.19;4971039;28;20299;-70
2024/01/25 10:36:26;;;;;;;16.90;3.40;;;;;;;10.58;100.00;101913.06;4969856;28;20871;-70
2024/01/25 10:38:54;;;;;;;12.37;3.40;;;;;;;10.60;100.00;101920.22;4967530;28;20256;-70
2024/01/25 10:41:23;;;;;;;20.40;3.90;;;;;;;10.51;100.00;101916.31;4969855;28;20291;-70
2024/01/25 10:43:50;;;;;;;12.53;2.63;;;;;;;10.51;100.00;101911.03;4962981;28;20685;-70
2024/01/25 10:46:18;;;;;;;14.03;3.50;;;;;;;10.78;100.00;101916.44;4969846;28;20304;-70
2024/01/25 10:48:45;;;;;;;15.70;3.07;;;;;;;10.84;100.00;101907.00;4970221;28;20224;-70
2024/01/25 10:51:14;;;;;;;10.63;2.87;;;;;;;10.92;100.00;101902.88;4969905;28;20580;-70
2024/01/25 10:53:42;;;;;;;17.13;3.43;;;;;;;10.85;100.00;101895.53;4964433;28;20225;-70
2024/01/25 10:56:09;;;;;;;14.37;3.23;;;;;;;10.87;100.00;101898.25;4961355;28;20761;-69
2024/01/25 10:58:35;;;;;;;10.77;3.30;;;;;;;10.90;100.00;101899.25;4968052;28;20673;-70
2024/01/25 11:01:10;;;;;;;17.33;3.43;;;;;;;10.96;100.00;101914.47;4969661;28;20267;-70
2024/01/25 11:03:41;;;;;;;12.83;3.30;;;;;;;11.03;100.00;101908.53;4970037;28;20200;-69
2024/01/25 11:06:10;;;;;;;20.47;3.67;;;;;;;11.15;100.00;101903.66;4965950;28;20287;-70
2024/01/25 11:08:38;;;;;;;15.10;3.77;;;;;;;11.29;100.00;101912.13;4968681;28;20254;-70
2024/01/25 11:11:07;;;;;;;17.40;4.10;;;;;;;11.11;100.00;101899.09;4969132;28;20241;-69
2024/01/25 11:13:33;;;;;;;12.93;3.30;;;;;;;11.30;100.00;101895.38;4969041;28;20224;-69
2024/01/25 11:16:14;;;;;;;15.47;3.57;;;;;;;11.31;100.00;101891.88;4966520;28;20210;-71